createdAt,value
2019-02-25T00:02:24.362Z,11.10
2019-02-25T00:05:47.601Z,15.80
2019-02-25T00:09:11.037Z,9.60
2019-02-25T00:12:34.332Z,11.03
2019-02-25T00:15:57.506Z,10.67
2019-02-25T00:19:20.654Z,15.03
2019-02-25T00:22:43.822Z,11.97
2019-02-25T00:26:06.884Z,12.63
2019-02-25T00:29:29.969Z,10.67
2019-02-25T00:32:53.209Z,10.70
2019-02-25T00:36:16.565Z,11.77
2019-02-25T00:39:39.654Z,13.70
2019-02-25T00:43:02.823Z,13.27
2019-02-25T00:46:25.952Z,14.80
2019-02-25T00:49:49.055Z,11.37
2019-02-25T00:53:12.365Z,11.03
2019-02-25T00:56:35.496Z,11.53
2019-02-25T00:59:58.900Z,13.20
2019-02-25T01:03:22.034Z,13.73
2019-02-25T01:06:45.114Z,10.03
2019-02-25T01:10:08.784Z,10.77
2019-02-25T01:13:31.862Z,11.40
2019-02-25T01:16:54.988Z,11.77
2019-02-25T01:20:18.132Z,13.17
2019-02-25T01:23:41.187Z,13.30
2019-02-25T01:27:04.371Z,12.70
2019-02-25T01:30:27.468Z,11.07
2019-02-25T01:33:50.591Z,11.13
2019-02-25T01:37:13.693Z,11.13
2019-02-25T01:40:36.793Z,13.23
2019-02-25T01:43:59.917Z,12.67
2019-02-25T01:47:23.609Z,12.73
2019-02-25T01:50:46.703Z,10.07
2019-02-25T01:54:09.824Z,9.57
2019-02-25T01:57:32.947Z,14.00
2019-02-25T02:00:56.049Z,10.63
2019-02-25T02:04:19.387Z,10.93
2019-02-25T02:07:42.482Z,11.40
2019-02-25T02:11:05.571Z,10.83
2019-02-25T02:14:28.613Z,21.50
2019-02-25T02:17:51.976Z,13.50
2019-02-25T02:21:15.081Z,11.73
2019-02-25T02:24:38.186Z,12.30
2019-02-25T02:28:01.263Z,10.97
2019-02-25T02:31:24.351Z,10.23
2019-02-25T02:34:47.457Z,10.70
2019-02-25T02:38:11.202Z,11.43
2019-02-25T02:42:28.405Z,15.17
2019-02-25T02:45:57.844Z,10.37
2019-02-25T02:49:20.937Z,13.13
2019-02-25T02:52:44.050Z,11.60
2019-02-25T02:56:06.949Z,11.73
2019-02-25T02:59:30.066Z,10.80
2019-02-25T03:02:53.169Z,14.13
2019-02-25T03:06:16.317Z,11.07
2019-02-25T03:09:39.652Z,12.37
2019-02-25T03:13:02.759Z,11.93
2019-02-25T03:16:25.857Z,11.63
2019-02-25T03:19:49.069Z,12.50
2019-02-25T03:23:12.137Z,11.30
2019-02-25T03:26:35.329Z,10.93
2019-02-25T03:29:58.391Z,10.77
2019-02-25T03:33:21.493Z,12.13
2019-02-25T03:36:44.612Z,12.90
2019-02-25T03:40:10.194Z,14.87
2019-02-25T03:43:33.290Z,12.13
2019-02-25T03:46:56.343Z,9.93
2019-02-25T03:50:19.478Z,12.30
2019-02-25T03:53:42.552Z,11.70
2019-02-25T03:57:05.656Z,18.47
2019-02-25T04:00:28.772Z,12.00
2019-02-25T04:03:51.890Z,12.70
2019-02-25T04:07:14.984Z,16.20
2019-02-25T04:10:38.343Z,14.00
2019-02-25T04:14:01.534Z,13.60
2019-02-25T04:17:24.630Z,14.67
2019-02-25T04:20:47.993Z,13.83
2019-02-25T04:24:11.087Z,12.03
2019-02-25T04:27:34.201Z,14.73
2019-02-25T04:30:57.279Z,13.90
2019-02-25T04:34:20.406Z,12.37
2019-02-25T04:37:43.539Z,14.17
2019-02-25T04:41:06.733Z,11.93
2019-02-25T04:44:29.837Z,12.53
2019-02-25T04:47:53.112Z,12.77
2019-02-25T04:51:16.217Z,10.83
2019-02-25T04:54:39.591Z,13.87
2019-02-25T04:58:02.739Z,18.03
2019-02-25T05:01:25.885Z,12.87
2019-02-25T05:04:49.006Z,11.63
2019-02-25T05:08:12.115Z,13.40
2019-02-25T05:11:36.849Z,13.47
2019-02-25T05:15:00.265Z,16.07
2019-02-25T05:18:23.533Z,15.63
2019-02-25T05:21:46.693Z,17.97
2019-02-25T05:25:10.025Z,11.27
2019-02-25T05:28:33.143Z,13.60
2019-02-25T05:31:56.233Z,14.27
2019-02-25T05:35:19.300Z,11.33
2019-02-25T05:38:42.621Z,14.53
2019-02-25T05:42:05.704Z,14.00
2019-02-25T05:45:28.832Z,13.80
2019-02-25T05:48:53.806Z,12.80
2019-02-25T05:52:17.255Z,13.47
2019-02-25T05:55:40.553Z,15.80
2019-02-25T05:59:03.741Z,15.80
2019-02-25T06:02:26.988Z,13.30
2019-02-25T06:05:50.202Z,12.57
2019-02-25T06:09:17.303Z,12.07
2019-02-25T06:12:40.418Z,15.87
2019-02-25T06:16:03.565Z,13.87
2019-02-25T06:19:27.683Z,11.30
2019-02-25T06:22:51.017Z,13.13
2019-02-25T06:26:20.037Z,14.23
2019-02-25T06:29:43.185Z,14.13
2019-02-25T06:33:06.337Z,11.27
2019-02-25T06:36:29.515Z,11.57
2019-02-25T06:39:52.685Z,13.07
2019-02-25T06:43:15.781Z,14.50
2019-02-25T06:46:38.913Z,11.97
2019-02-25T06:50:02.184Z,14.07
2019-02-25T06:53:25.543Z,10.37
2019-02-25T06:56:48.759Z,11.33
2019-02-25T07:00:16.698Z,9.80
2019-02-25T07:04:23.899Z,13.67
2019-02-25T07:08:09.295Z,14.53
2019-02-25T07:11:55.082Z,11.80
2019-02-25T07:15:35.158Z,14.63
2019-02-25T07:19:29.971Z,13.70
2019-02-25T07:23:15.551Z,12.70
2019-02-25T07:26:45.798Z,14.80
2019-02-25T07:30:31.704Z,11.73
2019-02-25T07:34:17.366Z,17.37
2019-02-25T07:38:00.904Z,10.90
2019-02-25T07:41:58.751Z,12.10
2019-02-25T07:45:37.625Z,13.63
2019-02-25T07:49:23.175Z,13.80
2019-02-25T07:53:05.921Z,15.93
2019-02-25T07:56:42.664Z,14.63
2019-02-25T08:00:18.735Z,15.83
2019-02-25T08:04:07.223Z,17.70
2019-02-25T08:07:36.118Z,16.60
2019-02-25T08:11:08.407Z,14.30
2019-02-25T08:14:39.879Z,15.97
2019-02-25T08:18:07.980Z,14.87
2019-02-25T08:21:48.864Z,14.33
2019-02-25T08:25:29.912Z,10.07
2019-02-25T08:29:27.328Z,11.77
2019-02-25T08:33:10.968Z,8.87
2019-02-25T08:37:44.037Z,11.07
2019-02-25T08:41:36.303Z,10.73
2019-02-25T08:45:20.492Z,9.80
2019-02-25T08:48:48.704Z,7.87
2019-02-25T08:52:11.868Z,9.93
2019-02-25T08:55:34.973Z,8.90
2019-02-25T08:58:58.365Z,9.90
2019-02-25T09:02:22.414Z,7.27
2019-02-25T09:05:45.513Z,7.40
2019-02-25T09:09:09.647Z,11.23
2019-02-25T09:12:32.846Z,8.30
2019-02-25T09:15:56.225Z,10.70
2019-02-25T09:19:19.515Z,9.87
2019-02-25T09:22:42.614Z,8.93
2019-02-25T09:26:05.728Z,7.07
2019-02-25T09:29:29.241Z,9.00
2019-02-25T09:32:52.526Z,10.07
2019-02-25T09:36:15.768Z,6.50
2019-02-25T09:39:39.411Z,6.37
2019-02-25T09:43:04.463Z,7.90
2019-02-25T09:46:27.610Z,9.50
2019-02-25T09:49:51.126Z,5.35
2019-02-25T09:53:14.309Z,7.60
2019-02-25T09:56:37.491Z,7.97
2019-02-25T10:00:00.698Z,7.33
2019-02-25T10:03:24.037Z,9.60
2019-02-25T10:06:47.316Z,7.22
2019-02-25T10:10:12.643Z,6.30
2019-02-25T10:13:35.940Z,7.72
2019-02-25T10:16:59.181Z,6.95
2019-02-25T10:20:22.631Z,6.20
2019-02-25T10:23:46.772Z,10.40
2019-02-25T10:27:09.939Z,12.00
2019-02-25T10:30:33.205Z,7.53
2019-02-25T10:33:56.410Z,10.53
2019-02-25T10:37:19.849Z,6.78
2019-02-25T10:40:44.950Z,6.80
2019-02-25T10:44:08.594Z,8.00
2019-02-25T10:47:32.020Z,6.05
2019-02-25T10:50:56.315Z,5.17
2019-02-25T10:54:21.248Z,8.00
2019-02-25T10:57:45.285Z,6.00
2019-02-25T11:01:13.486Z,4.95
2019-02-25T11:04:33.843Z,4.80
2019-02-25T11:07:57.313Z,7.22
2019-02-25T11:11:25.429Z,6.10
2019-02-25T11:14:49.631Z,5.10
2019-02-25T11:18:12.814Z,5.20
2019-02-25T11:21:37.611Z,5.17
2019-02-25T11:25:01.737Z,5.35
2019-02-25T11:28:26.033Z,7.62
2019-02-25T11:31:51.443Z,5.03
2019-02-25T11:35:14.931Z,9.13
2019-02-25T11:38:38.298Z,5.33
2019-02-25T11:42:03.313Z,5.20
2019-02-25T11:45:26.910Z,5.65
2019-02-25T11:48:49.995Z,5.03
2019-02-25T11:52:13.092Z,6.87
2019-02-25T11:55:36.183Z,10.38
2019-02-25T11:58:59.322Z,4.80
2019-02-25T12:02:25.588Z,6.40
2019-02-25T12:05:47.649Z,5.70
2019-02-25T12:09:10.733Z,6.65
2019-02-25T12:12:34.307Z,5.12
2019-02-25T12:15:57.415Z,8.45
2019-02-25T12:19:20.680Z,5.92
2019-02-25T12:22:44.147Z,6.22
2019-02-25T12:26:07.436Z,9.30
2019-02-25T12:29:31.061Z,5.85
2019-02-25T12:32:54.288Z,6.95
2019-02-25T12:36:18.390Z,3.70
2019-02-25T12:39:41.585Z,8.15
2019-02-25T12:43:04.700Z,4.45
2019-02-25T12:46:27.785Z,9.20
2019-02-25T12:49:51.944Z,6.17
2019-02-25T12:53:15.064Z,4.45
2019-02-25T12:56:38.590Z,11.57
2019-02-25T13:00:07.306Z,7.65
2019-02-25T13:03:30.964Z,10.25
2019-02-25T13:06:56.854Z,12.70
2019-02-25T13:10:20.268Z,6.92
2019-02-25T13:13:43.578Z,8.93
2019-02-25T13:17:06.786Z,6.55
2019-02-25T13:20:29.989Z,4.40
2019-02-25T13:23:54.708Z,6.90
2019-02-25T13:27:21.823Z,6.97
2019-02-25T13:30:44.891Z,4.87
2019-02-25T13:34:08.226Z,5.85
2019-02-25T13:37:31.459Z,4.10
2019-02-25T13:40:54.928Z,4.15
2019-02-25T13:44:18.150Z,8.93
2019-02-25T13:47:41.833Z,5.92
2019-02-25T13:51:05.017Z,8.88
2019-02-25T13:54:29.598Z,4.10
2019-02-25T13:57:53.834Z,8.00
2019-02-25T14:01:17.644Z,4.58
2019-02-25T14:04:41.350Z,6.03
2019-02-25T14:08:04.637Z,4.28
2019-02-25T14:11:27.903Z,7.83
2019-02-25T14:14:51.099Z,6.12
2019-02-25T14:18:14.200Z,4.62
2019-02-25T14:21:37.749Z,4.47
2019-02-25T14:25:03.630Z,7.37
2019-02-25T14:28:25.986Z,6.72
2019-02-25T14:31:51.089Z,5.75
2019-02-25T14:35:15.819Z,4.50
2019-02-25T14:38:39.039Z,3.83
2019-02-25T14:42:06.833Z,3.75
2019-02-25T14:45:32.142Z,9.00
2019-02-25T14:48:55.864Z,5.10
2019-02-25T14:52:19.836Z,4.55
2019-02-25T14:55:47.184Z,4.10
2019-02-25T14:59:14.545Z,5.97
2019-02-25T15:02:35.125Z,7.80
2019-02-25T15:05:59.254Z,7.65
2019-02-25T15:09:22.900Z,5.25
2019-02-25T15:12:45.975Z,6.37
2019-02-25T15:16:10.163Z,6.97
2019-02-25T15:19:34.414Z,7.00
2019-02-25T15:22:58.579Z,6.90
2019-02-25T15:26:23.553Z,8.45
2019-02-25T15:29:48.502Z,6.90
2019-02-25T15:33:12.301Z,6.50
2019-02-25T15:36:35.497Z,7.08
2019-02-25T15:39:58.601Z,6.55
2019-02-25T15:43:23.230Z,6.25
2019-02-25T15:46:46.790Z,7.55
2019-02-25T15:50:12.314Z,5.80
2019-02-25T15:53:35.537Z,9.40
2019-02-25T15:56:58.922Z,6.75
2019-02-25T16:00:25.415Z,6.70
2019-02-25T16:03:49.669Z,6.95
2019-02-25T16:07:13.107Z,10.23
2019-02-25T16:10:36.574Z,11.83
2019-02-25T16:14:01.865Z,6.12
2019-02-25T16:17:26.122Z,11.65
2019-02-25T16:20:49.316Z,8.65
2019-02-25T16:24:14.188Z,11.28
2019-02-25T16:27:37.745Z,9.25
2019-02-25T16:31:03.842Z,6.70
2019-02-25T16:34:27.184Z,7.60
2019-02-25T16:37:50.743Z,8.08
2019-02-25T16:41:16.080Z,7.78
2019-02-25T16:44:39.421Z,8.75
2019-02-25T16:48:02.812Z,7.70
2019-02-25T16:51:27.607Z,9.85
2019-02-25T16:54:51.274Z,7.92
2019-02-25T16:58:14.523Z,8.23
2019-02-25T17:01:39.890Z,7.75
2019-02-25T17:05:02.794Z,15.08
2019-02-25T17:08:28.120Z,9.03
2019-02-25T17:11:51.828Z,9.88
2019-02-25T17:15:16.574Z,8.68
2019-02-25T17:18:39.867Z,7.90
2019-02-25T17:22:05.134Z,9.48
2019-02-25T17:25:31.358Z,7.28
2019-02-25T17:28:53.743Z,7.12
2019-02-25T17:32:19.378Z,7.35
2019-02-25T17:35:44.803Z,7.75
2019-02-25T17:39:12.986Z,8.88
2019-02-25T17:42:37.024Z,7.62
2019-02-25T17:46:03.808Z,8.20
2019-02-25T17:49:26.518Z,9.90
2019-02-25T17:52:50.127Z,9.78
2019-02-25T17:56:13.380Z,11.40
2019-02-25T17:59:36.511Z,11.93
2019-02-25T18:03:01.493Z,10.25
2019-02-25T18:06:29.462Z,9.65
2019-02-25T18:09:50.181Z,14.85
2019-02-25T18:13:13.660Z,15.05
2019-02-25T18:16:39.117Z,10.82
2019-02-25T18:20:02.855Z,13.28
2019-02-25T18:23:26.151Z,10.20
2019-02-25T18:26:49.369Z,11.25
2019-02-25T18:30:13.816Z,10.63
2019-02-25T18:33:37.770Z,10.38
2019-02-25T18:37:01.219Z,10.32
2019-02-25T18:40:25.011Z,10.82
2019-02-25T18:43:49.418Z,10.55
2019-02-25T18:47:16.363Z,11.40
2019-02-25T18:50:40.359Z,11.48
2019-02-25T18:54:03.912Z,9.40
2019-02-25T18:57:28.993Z,9.63
2019-02-25T19:00:52.357Z,12.70
2019-02-25T19:04:17.133Z,9.25
2019-02-25T19:07:40.812Z,14.63
2019-02-25T19:11:04.262Z,10.48
2019-02-25T19:14:28.843Z,9.07
2019-02-25T19:17:54.394Z,13.30
2019-02-25T19:21:17.982Z,13.08
2019-02-25T19:24:42.276Z,13.13
2019-02-25T19:28:06.650Z,10.40
2019-02-25T19:31:30.409Z,12.00
2019-02-25T19:34:55.992Z,17.10
2019-02-25T19:38:18.857Z,14.73
2019-02-25T19:41:45.087Z,14.33
2019-02-25T19:45:10.108Z,18.57
2019-02-25T19:48:33.653Z,14.57
2019-02-25T19:51:56.829Z,14.03
2019-02-25T19:55:21.047Z,17.03
2019-02-25T19:58:45.273Z,14.77
2019-02-25T20:02:11.172Z,14.90
2019-02-25T20:05:38.838Z,14.23
2019-02-25T20:09:00.501Z,10.27
2019-02-25T20:12:23.836Z,10.57
2019-02-25T20:15:48.993Z,10.47
2019-02-25T20:19:13.506Z,15.17
2019-02-25T20:22:38.614Z,12.53
2019-02-25T20:26:02.197Z,12.83
2019-02-25T20:29:26.181Z,16.33
2019-02-25T20:32:49.837Z,11.73
2019-02-25T20:36:17.163Z,11.43
2019-02-25T20:39:44.701Z,12.70
2019-02-25T20:43:08.541Z,17.73
2019-02-25T20:46:35.420Z,11.90
2019-02-25T20:50:03.295Z,13.00
2019-02-25T20:53:29.440Z,13.20
2019-02-25T20:56:55.457Z,11.17
2019-02-25T21:00:20.025Z,10.67
2019-02-25T21:03:45.830Z,11.30
2019-02-25T21:07:11.495Z,14.37
2019-02-25T21:10:35.655Z,12.83
2019-02-25T21:13:59.701Z,12.93
2019-02-25T21:17:23.103Z,12.53
2019-02-25T21:20:51.411Z,15.43
2019-02-25T21:24:15.273Z,15.10
2019-02-25T21:27:40.787Z,17.07
2019-02-25T21:31:07.197Z,18.67
2019-02-25T21:34:31.216Z,18.23
2019-02-25T21:37:55.795Z,16.87
2019-02-25T21:41:20.211Z,15.57
2019-02-25T21:44:46.106Z,20.70
2019-02-25T21:48:09.647Z,17.30
2019-02-25T21:51:35.142Z,18.03
2019-02-25T21:55:00.009Z,20.77
2019-02-25T21:58:25.454Z,15.53
2019-02-25T22:01:50.040Z,15.70
2019-02-25T22:05:14.187Z,14.03
2019-02-25T22:08:39.140Z,16.93
2019-02-25T22:12:02.713Z,18.60
2019-02-25T22:15:25.944Z,14.83
2019-02-25T22:18:50.370Z,17.30
2019-02-25T22:22:16.285Z,16.07
2019-02-25T22:25:39.800Z,14.33
2019-02-25T22:29:03.068Z,13.83
2019-02-25T22:32:26.656Z,19.27
2019-02-25T22:35:51.771Z,14.97
2019-02-25T22:39:15.342Z,18.60
2019-02-25T22:42:38.691Z,15.83
2019-02-25T22:46:02.488Z,17.10
2019-02-25T22:49:28.862Z,18.33
2019-02-25T22:52:58.249Z,15.87
2019-02-25T22:56:18.336Z,18.33
2019-02-25T22:59:42.859Z,17.20
2019-02-25T23:03:06.718Z,19.00
2019-02-25T23:06:30.028Z,16.77
2019-02-25T23:09:54.409Z,18.83
2019-02-25T23:13:20.003Z,19.33
2019-02-25T23:16:44.171Z,18.43
2019-02-25T23:20:09.394Z,18.57
2019-02-25T23:23:35.630Z,17.17
2019-02-25T23:26:59.659Z,23.93
2019-02-25T23:30:23.416Z,27.50
2019-02-25T23:33:48.981Z,34.73
2019-02-25T23:37:14.733Z,26.43
2019-02-25T23:40:38.306Z,23.93
2019-02-25T23:44:02.635Z,23.77
2019-02-25T23:47:28.806Z,22.80
2019-02-25T23:50:53.337Z,24.53
2019-02-25T23:54:18.491Z,24.23
2019-02-25T23:57:42.173Z,22.47
